createdAt,value
2023-03-16T00:03:35.419Z,66.98
2023-03-16T00:08:39.488Z,67.43
2023-03-16T00:13:43.196Z,67.89
2023-03-16T00:18:46.136Z,67.15
2023-03-16T00:23:48.949Z,67.52
2023-03-16T00:28:54.679Z,67.60
2023-03-16T00:33:57.374Z,67.47
2023-03-16T00:39:00.264Z,67.64
2023-03-16T00:44:03.000Z,67.27
2023-03-16T00:49:05.844Z,68.11
2023-03-16T00:54:08.911Z,68.10
2023-03-16T00:59:13.394Z,67.72
2023-03-16T01:04:16.189Z,68.04
2023-03-16T01:09:19.052Z,67.95
2023-03-16T01:14:22.782Z,68.06
2023-03-16T01:19:25.596Z,68.05
2023-03-16T01:24:28.824Z,68.16
2023-03-16T01:29:32.464Z,67.65
2023-03-16T01:34:35.572Z,67.20
2023-03-16T01:39:39.212Z,66.60
2023-03-16T01:44:57.594Z,66.30
2023-03-16T01:50:07.897Z,65.51
2023-03-16T01:55:15.324Z,64.90
2023-03-16T02:00:20.260Z,64.56
2023-03-16T02:06:05.366Z,64.16
2023-03-16T02:11:10.575Z,64.07
2023-03-16T02:16:27.188Z,63.63
2023-03-16T02:21:46.379Z,63.50
2023-03-16T02:26:54.245Z,63.71
2023-03-16T02:32:03.037Z,63.60
2023-03-16T02:37:05.671Z,62.80
2023-03-16T02:42:12.919Z,62.76
2023-03-16T02:47:42.106Z,61.89
2023-03-16T02:52:45.140Z,62.03
2023-03-16T02:57:48.761Z,61.55
2023-03-16T03:02:53.075Z,61.34
2023-03-16T03:07:55.927Z,61.47
2023-03-16T03:12:59.651Z,60.67
2023-03-16T03:18:03.258Z,60.67
2023-03-16T03:23:07.395Z,60.46
2023-03-16T03:28:10.124Z,60.56
2023-03-16T03:33:13.364Z,60.11
2023-03-16T03:38:16.232Z,60.02
2023-03-16T03:43:21.510Z,59.42
2023-03-16T03:48:26.063Z,59.17
2023-03-16T03:53:28.927Z,58.44
2023-03-16T03:58:49.914Z,58.36
2023-03-16T04:04:02.145Z,58.01
2023-03-16T04:09:05.876Z,57.83
2023-03-16T04:14:09.033Z,57.60
2023-03-16T04:19:14.388Z,57.45
2023-03-16T04:24:18.466Z,57.47
2023-03-16T04:29:21.501Z,56.97
2023-03-16T04:34:25.436Z,56.70
2023-03-16T04:39:32.211Z,56.72
2023-03-16T04:44:44.420Z,56.08
2023-03-16T04:49:51.835Z,55.44
2023-03-16T04:54:55.132Z,55.36
2023-03-16T04:59:57.964Z,55.23
2023-03-16T05:05:07.971Z,55.02
2023-03-16T05:10:14.506Z,54.84
2023-03-16T05:15:17.569Z,54.84
2023-03-16T05:20:26.333Z,54.12
2023-03-16T05:25:33.318Z,53.67
2023-03-16T05:30:39.888Z,53.47
2023-03-16T05:35:46.467Z,53.08
2023-03-16T05:40:53.387Z,52.51
2023-03-16T05:46:09.054Z,51.90
2023-03-16T05:51:14.553Z,52.16
2023-03-16T05:56:18.444Z,51.89
2023-03-16T06:01:22.733Z,51.78
2023-03-16T06:06:26.574Z,52.58
2023-03-16T06:11:41.179Z,52.10
2023-03-16T06:16:44.176Z,52.17
2023-03-16T06:21:47.095Z,52.37
2023-03-16T06:26:49.965Z,52.06
2023-03-16T06:31:55.029Z,52.13
2023-03-16T06:36:59.168Z,53.15
2023-03-16T06:42:04.817Z,53.69
2023-03-16T06:47:08.721Z,53.78
2023-03-16T06:52:14.280Z,53.87
2023-03-16T06:57:16.834Z,54.35
2023-03-16T07:02:20.266Z,54.30
2023-03-16T07:07:24.856Z,54.00
2023-03-16T07:12:29.270Z,53.92
2023-03-16T07:17:32.736Z,54.42
2023-03-16T07:22:38.973Z,54.56
2023-03-16T07:27:45.822Z,54.41
2023-03-16T07:32:52.133Z,54.08
2023-03-16T07:37:57.851Z,53.47
2023-03-16T07:43:01.542Z,53.26
2023-03-16T07:48:10.670Z,53.39
2023-03-16T07:53:23.888Z,53.16
2023-03-16T07:58:35.056Z,52.86
2023-03-16T08:03:38.094Z,51.94
2023-03-16T08:08:43.287Z,51.52
2023-03-16T08:13:54.858Z,51.17
2023-03-16T08:18:57.586Z,51.03
2023-03-16T08:24:00.648Z,51.76
2023-03-16T08:29:04.228Z,51.63
2023-03-16T08:34:11.325Z,51.68
2023-03-16T08:39:19.165Z,51.87
2023-03-16T08:44:25.093Z,52.33
2023-03-16T08:49:29.880Z,52.18
2023-03-16T08:54:49.712Z,52.13
2023-03-16T08:59:59.349Z,52.29
2023-03-16T09:05:02.641Z,52.81
2023-03-16T09:10:07.403Z,52.89
2023-03-16T09:15:12.524Z,53.28
2023-03-16T09:20:33.228Z,53.17
2023-03-16T09:25:36.220Z,53.47
2023-03-16T09:30:38.893Z,54.01
2023-03-16T09:35:41.692Z,54.18
2023-03-16T09:40:47.057Z,54.44
2023-03-16T09:46:02.253Z,54.59
2023-03-16T09:51:07.063Z,54.81
2023-03-16T09:56:23.247Z,55.49
2023-03-16T10:01:48.648Z,57.38
2023-03-16T10:07:01.337Z,57.04
2023-03-16T10:12:07.006Z,56.73
2023-03-16T10:17:33.628Z,57.50
2023-03-16T10:22:38.955Z,57.71
2023-03-16T10:27:45.216Z,57.82
2023-03-16T10:32:48.613Z,59.14
2023-03-16T10:37:53.237Z,60.50
2023-03-16T10:42:56.291Z,62.23
2023-03-16T10:48:15.777Z,63.80
2023-03-16T10:53:30.521Z,64.21
2023-03-16T10:58:38.008Z,65.61
2023-03-16T11:03:42.085Z,65.46
2023-03-16T11:08:46.514Z,64.58
2023-03-16T11:13:49.490Z,65.06
2023-03-16T11:18:58.366Z,65.34
2023-03-16T11:24:04.907Z,65.16
2023-03-16T11:29:19.189Z,65.03
2023-03-16T11:34:28.942Z,64.61
2023-03-16T11:39:40.739Z,64.73
2023-03-16T11:45:10.421Z,65.29
2023-03-16T11:50:18.996Z,65.07
2023-03-16T11:55:44.809Z,64.55
2023-03-16T12:01:09.495Z,65.66
2023-03-16T12:06:40.972Z,65.54
2023-03-16T12:11:52.577Z,65.42
2023-03-16T12:17:08.810Z,65.60
2023-03-16T12:22:17.636Z,66.57
2023-03-16T12:27:33.049Z,66.84
2023-03-16T12:32:45.023Z,66.56
2023-03-16T12:38:08.629Z,67.47
2023-03-16T12:43:43.737Z,68.11
2023-03-16T12:48:54.893Z,68.29
2023-03-16T12:53:59.489Z,68.51
2023-03-16T12:59:06.079Z,68.50
2023-03-16T13:04:17.865Z,69.54
2023-03-16T13:09:24.672Z,69.32
2023-03-16T13:14:42.144Z,69.66
2023-03-16T13:19:48.161Z,69.63
2023-03-16T13:24:56.536Z,69.92
2023-03-16T13:30:02.382Z,70.38
2023-03-16T13:35:10.292Z,70.37
2023-03-16T13:40:25.560Z,70.92
2023-03-16T13:45:38.900Z,70.91
2023-03-16T13:50:43.003Z,70.72
2023-03-16T13:55:47.403Z,71.09
2023-03-16T14:00:50.357Z,71.43
2023-03-16T14:05:53.914Z,71.61
2023-03-16T14:11:01.473Z,71.91
2023-03-16T14:16:13.278Z,72.28
2023-03-16T14:21:18.773Z,72.18
2023-03-16T14:26:25.152Z,72.64
2023-03-16T14:31:40.138Z,72.69
2023-03-16T14:36:42.664Z,72.77
2023-03-16T14:41:50.131Z,72.20
2023-03-16T14:46:57.367Z,72.96
2023-03-16T14:52:03.072Z,73.20
2023-03-16T14:57:06.411Z,73.93
2023-03-16T15:02:31.141Z,74.32
2023-03-16T15:07:45.776Z,74.80
2023-03-16T15:12:54.448Z,74.72
2023-03-16T15:17:57.305Z,75.11
2023-03-16T15:23:00.266Z,75.49
2023-03-16T15:28:16.349Z,76.16
2023-03-16T15:33:19.776Z,75.87
2023-03-16T15:38:28.007Z,76.50
2023-03-16T15:43:32.335Z,76.33
2023-03-16T15:48:35.134Z,76.70
2023-03-16T15:53:43.662Z,76.21
2023-03-16T15:58:47.195Z,77.21
2023-03-16T16:03:53.414Z,76.69
2023-03-16T16:08:56.494Z,76.48
2023-03-16T16:13:59.989Z,76.82
2023-03-16T16:19:02.809Z,76.75
2023-03-16T16:24:06.180Z,77.17
2023-03-16T16:29:22.721Z,77.07
2023-03-16T16:34:25.950Z,77.02
2023-03-16T16:39:28.842Z,77.59
2023-03-16T16:44:34.537Z,78.06
2023-03-16T16:49:39.056Z,77.57
2023-03-16T16:54:41.833Z,77.88
2023-03-16T16:59:47.430Z,78.13
2023-03-16T17:04:51.109Z,77.76
2023-03-16T17:09:53.830Z,78.03
2023-03-16T17:14:56.794Z,78.31
2023-03-16T17:19:59.832Z,77.89
2023-03-16T17:25:02.604Z,78.23
2023-03-16T17:30:15.076Z,78.06
2023-03-16T17:35:18.224Z,78.39
2023-03-16T17:40:24.266Z,78.46
2023-03-16T17:45:28.725Z,78.33
2023-03-16T17:50:32.644Z,78.42
2023-03-16T17:55:35.497Z,78.90
2023-03-16T18:00:39.948Z,78.80
2023-03-16T18:05:44.114Z,78.49
2023-03-16T18:10:48.505Z,78.25
2023-03-16T18:15:52.347Z,78.10
2023-03-16T18:20:57.284Z,78.12
2023-03-16T18:26:09.341Z,77.92
2023-03-16T18:31:21.705Z,78.23
2023-03-16T18:36:30.514Z,78.14
2023-03-16T18:41:34.945Z,78.49
2023-03-16T18:46:38.836Z,78.30
2023-03-16T18:51:43.722Z,77.99
2023-03-16T18:56:46.383Z,78.78
2023-03-16T19:01:49.156Z,78.15
2023-03-16T19:06:54.461Z,78.33
2023-03-16T19:11:57.793Z,77.73
2023-03-16T19:17:00.832Z,78.14
2023-03-16T19:22:12.804Z,78.05
2023-03-16T19:27:26.514Z,78.42
2023-03-16T19:39:42.556Z,78.69
2023-03-16T19:44:48.545Z,78.44
2023-03-16T19:49:51.462Z,78.90
2023-03-16T19:54:54.516Z,78.31
2023-03-16T19:59:57.865Z,78.46
2023-03-16T20:05:00.610Z,78.99
2023-03-16T20:10:04.026Z,78.69
2023-03-16T20:15:07.594Z,78.72
2023-03-16T20:20:29.084Z,78.20
2023-03-16T20:25:33.131Z,78.36
2023-03-16T20:30:36.448Z,78.97
2023-03-16T20:35:39.118Z,78.67
2023-03-16T20:40:45.499Z,79.08
2023-03-16T20:45:48.501Z,79.05
2023-03-16T20:50:52.962Z,79.29
2023-03-16T20:55:56.767Z,79.38
2023-03-16T21:01:01.406Z,79.11
2023-03-16T21:06:10.497Z,78.91
2023-03-16T21:11:23.088Z,79.73
2023-03-16T21:16:26.212Z,79.50
2023-03-16T21:21:29.143Z,79.26
2023-03-16T21:26:33.479Z,79.72
2023-03-16T21:31:36.527Z,79.56
2023-03-16T21:36:39.280Z,80.01
2023-03-16T21:41:42.197Z,79.96
2023-03-16T21:46:47.566Z,79.19
2023-03-16T21:51:51.173Z,79.96
2023-03-16T21:56:53.949Z,80.18
2023-03-16T22:02:02.040Z,80.44
2023-03-16T22:07:12.827Z,79.91
2023-03-16T22:12:16.251Z,79.82
2023-03-16T22:17:22.805Z,79.40
2023-03-16T22:22:25.564Z,79.96
2023-03-16T22:27:30.430Z,79.76
2023-03-16T22:32:33.238Z,79.65
2023-03-16T22:37:36.432Z,80.26
2023-03-16T22:42:40.136Z,80.04
2023-03-16T22:47:42.895Z,80.00
2023-03-16T22:52:47.676Z,80.19
2023-03-16T22:58:01.124Z,80.62
2023-03-16T23:03:04.684Z,80.65
2023-03-16T23:08:13.373Z,80.47
2023-03-16T23:13:19.220Z,80.87
2023-03-16T23:18:26.503Z,80.39
2023-03-16T23:23:29.192Z,80.79
2023-03-16T23:28:32.061Z,80.89
2023-03-16T23:33:34.758Z,81.22
2023-03-16T23:38:37.815Z,81.75
2023-03-16T23:43:42.089Z,81.60
2023-03-16T23:48:46.325Z,81.44
2023-03-16T23:53:50.072Z,82.18
2023-03-16T23:58:52.965Z,82.43
